Time;durP1;ratioP1;P1;durP2;ratioP2;P2;SDS_P1;SDS_P2;PMS_P1;PMS_P2;Temp;Humidity;BMP_temperature;BMP_pressure;BME280_temperature;BME280_humidity;BME280_pressure;Samples;Min_cycle;Max_cycle;Signal;HPM_P1;HPM_P2
2023/07/17 00:02:24;;;;;;;2.17;1.63;;;;;;;;;;5051459;28;20443;-84
2023/07/17 00:04:50;;;;;;;3.97;1.95;;;;;;;;;;5070222;28;20072;-83
2023/07/17 00:07:16;;;;;;;2.22;1.48;;;;;;;;;;5034465;28;20053;-83
2023/07/17 00:09:43;;;;;;;2.33;1.40;;;;;;;;;;5028593;28;20092;-83
2023/07/17 00:12:09;;;;;;;3.58;1.63;;;;;;;;;;5029342;28;20061;-83
2023/07/17 00:14:35;;;;;;;3.85;1.50;;;;;;;;;;5028601;28;20037;-84
2023/07/17 00:17:01;;;;;;;1.60;1.25;;;;;;;;;;5029831;28;20037;-83
2023/07/17 00:19:27;;;;;;;2.63;1.33;;;;;;;;;;5042633;28;20066;-83
2023/07/17 00:21:53;;;;;;;2.90;1.30;;;;;;;;;;5048509;28;20043;-83
2023/07/17 00:24:19;;;;;;;3.15;1.30;;;;;;;;;;5043146;28;20098;-83
2023/07/17 00:26:45;;;;;;;1.90;1.27;;;;;;;;;;5037049;28;20033;-83
2023/07/17 00:29:23;;;;;;;2.38;1.50;;;;;;;;;;5048563;28;20052;-84
2023/07/17 00:31:50;;;;;;;4.53;1.35;;;;;;;;;;5057521;28;20046;-84
2023/07/17 00:34:16;;;;;;;2.08;1.20;;;;;;;;;;5029479;28;20041;-83
2023/07/17 00:36:42;;;;;;;1.60;1.17;;;;;;;;;;5045324;28;20033;-83
2023/07/17 00:39:08;;;;;;;3.33;1.55;;;;;;;;;;5048831;28;20132;-84
2023/07/17 00:41:34;;;;;;;2.38;1.23;;;;;;;;;;5031984;28;20128;-84
2023/07/17 00:44:00;;;;;;;3.67;1.50;;;;;;;;;;5028761;28;20037;-82
2023/07/17 00:46:26;;;;;;;4.88;1.70;;;;;;;;;;5037265;28;20436;-82
2023/07/17 00:48:52;;;;;;;3.47;1.63;;;;;;;;;;5052736;28;20052;-84
2023/07/17 00:51:18;;;;;;;3.15;1.50;;;;;;;;;;5053146;28;20132;-83
2023/07/17 00:53:44;;;;;;;2.45;1.35;;;;;;;;;;5055390;28;20039;-84
2023/07/17 00:56:10;;;;;;;4.43;1.90;;;;;;;;;;5055144;28;20033;-83
2023/07/17 00:58:37;;;;;;;3.97;1.48;;;;;;;;;;5035418;28;20060;-87
2023/07/17 01:01:03;;;;;;;2.90;1.50;;;;;;;;;;5038890;28;20041;-82
2023/07/17 01:03:30;;;;;;;3.33;1.48;;;;;;;;;;5041653;28;20037;-83
2023/07/17 01:05:59;;;;;;;2.58;1.42;;;;;;;;;;5047392;28;20106;-82
2023/07/17 01:08:25;;;;;;;4.22;1.45;;;;;;;;;;5048776;28;20138;-82
2023/07/17 01:10:52;;;;;;;2.53;1.02;;;;;;;;;;5049913;28;20052;-82
2023/07/17 01:13:18;;;;;;;3.92;1.80;;;;;;;;;;5050779;28;20505;-82
2023/07/17 01:15:44;;;;;;;3.83;1.65;;;;;;;;;;5051672;28;20095;-82
2023/07/17 01:18:10;;;;;;;4.88;1.27;;;;;;;;;;5039124;28;20389;-82
2023/07/17 01:20:36;;;;;;;4.20;1.33;;;;;;;;;;5050475;28;20063;-82
2023/07/17 01:23:03;;;;;;;3.45;1.35;;;;;;;;;;5054915;28;20044;-81
2023/07/17 01:25:29;;;;;;;3.78;1.50;;;;;;;;;;5071490;28;20362;-82
2023/07/17 01:27:56;;;;;;;5.32;1.45;;;;;;;;;;5036269;28;20041;-82
2023/07/17 01:30:22;;;;;;;4.53;1.20;;;;;;;;;;5031839;28;20445;-81
2023/07/17 01:32:48;;;;;;;4.45;1.15;;;;;;;;;;5032512;28;20041;-82
2023/07/17 01:35:14;;;;;;;3.88;1.77;;;;;;;;;;5084084;28;20044;-82
2023/07/17 01:37:42;;;;;;;1.48;0.98;;;;;;;;;;5049211;28;20045;-82
2023/07/17 01:40:09;;;;;;;3.50;1.10;;;;;;;;;;5051997;28;20048;-82
2023/07/17 01:42:35;;;;;;;1.92;0.98;;;;;;;;;;5050901;28;20047;-81
2023/07/17 01:45:01;;;;;;;3.83;1.40;;;;;;;;;;5051277;28;20049;-82
2023/07/17 01:47:27;;;;;;;1.73;1.05;;;;;;;;;;5050589;28;20033;-82
2023/07/17 01:49:53;;;;;;;3.55;2.65;;;;;;;;;;5050454;28;20045;-81
2023/07/17 01:52:19;;;;;;;2.58;1.15;;;;;;;;;;5050889;28;20127;-82
2023/07/17 01:54:45;;;;;;;2.67;1.25;;;;;;;;;;5050491;28;20072;-81
2023/07/17 01:57:11;;;;;;;2.08;1.00;;;;;;;;;;5050590;28;20393;-82
2023/07/17 01:59:37;;;;;;;2.40;1.20;;;;;;;;;;5050666;28;20047;-82
2023/07/17 02:02:03;;;;;;;4.85;1.25;;;;;;;;;;5042438;28;20053;-82
2023/07/17 02:04:29;;;;;;;4.10;1.35;;;;;;;;;;5032235;28;20044;-82
2023/07/17 02:06:55;;;;;;;4.75;1.17;;;;;;;;;;5063778;28;20045;-83
2023/07/17 02:09:21;;;;;;;2.42;1.67;;;;;;;;;;5031797;28;20073;-82
2023/07/17 02:11:47;;;;;;;3.30;1.10;;;;;;;;;;5043959;28;20114;-83
2023/07/17 02:14:14;;;;;;;2.83;1.33;;;;;;;;;;5053616;28;20037;-82
2023/07/17 02:16:40;;;;;;;4.07;0.98;;;;;;;;;;5044676;28;20447;-81
2023/07/17 02:19:06;;;;;;;2.88;1.05;;;;;;;;;;5042684;28;20440;-82
2023/07/17 02:21:33;;;;;;;2.92;0.93;;;;;;;;;;5052637;28;20048;-82
2023/07/17 02:23:59;;;;;;;1.83;0.70;;;;;;;;;;5050172;28;20127;-82
2023/07/17 02:26:25;;;;;;;2.75;1.27;;;;;;;;;;5049246;28;20084;-81
2023/07/17 02:28:51;;;;;;;4.90;1.33;;;;;;;;;;5033134;28;20099;-81
2023/07/17 02:31:17;;;;;;;3.90;1.60;;;;;;;;;;5039040;28;20041;-82
2023/07/17 02:33:43;;;;;;;3.33;1.67;;;;;;;;;;5035637;28;20033;-83
2023/07/17 02:36:10;;;;;;;4.03;1.27;;;;;;;;;;5035197;28;20036;-82
2023/07/17 02:38:36;;;;;;;3.42;1.00;;;;;;;;;;5030991;28;20037;-82
2023/07/17 02:41:02;;;;;;;3.17;1.20;;;;;;;;;;5039556;28;20041;-81
2023/07/17 02:43:28;;;;;;;1.77;0.88;;;;;;;;;;5035616;28;20045;-79
2023/07/17 02:45:54;;;;;;;3.50;1.20;;;;;;;;;;5042789;28;20079;-82
2023/07/17 02:48:20;;;;;;;2.67;1.55;;;;;;;;;;5038748;28;20092;-81
2023/07/17 02:50:50;;;;;;;2.92;1.30;;;;;;;;;;5032793;28;20053;-80
2023/07/17 02:53:16;;;;;;;3.00;1.27;;;;;;;;;;5046461;28;20041;-82
2023/07/17 02:55:42;;;;;;;2.78;1.13;;;;;;;;;;5032348;28;20489;-82
2023/07/17 02:58:08;;;;;;;4.18;1.10;;;;;;;;;;5038830;28;20095;-82
2023/07/17 03:00:35;;;;;;;3.30;1.27;;;;;;;;;;5030816;28;20041;-82
2023/07/17 03:03:01;;;;;;;4.55;1.10;;;;;;;;;;5042844;28;20040;-82
2023/07/17 03:05:28;;;;;;;4.68;1.20;;;;;;;;;;5031157;28;20048;-81
2023/07/17 03:07:54;;;;;;;3.03;1.10;;;;;;;;;;5046342;28;20037;-82
2023/07/17 03:10:21;;;;;;;2.78;1.30;;;;;;;;;;5047043;28;20037;-82
2023/07/17 03:12:47;;;;;;;4.53;1.33;;;;;;;;;;5077574;28;20061;-81
2023/07/17 03:15:13;;;;;;;4.60;1.48;;;;;;;;;;5034624;28;20051;-81
2023/07/17 03:17:39;;;;;;;4.15;1.40;;;;;;;;;;5023868;28;20123;-80
2023/07/17 03:20:08;;;;;;;4.50;1.58;;;;;;;;;;5041267;28;20095;-81
2023/07/17 03:22:35;;;;;;;4.45;1.50;;;;;;;;;;5042063;28;20052;-80
2023/07/17 03:25:02;;;;;;;4.65;1.65;;;;;;;;;;5040600;28;20055;-81
2023/07/17 03:27:28;;;;;;;3.63;1.35;;;;;;;;;;5038270;28;20485;-82
2023/07/17 03:29:54;;;;;;;4.32;1.35;;;;;;;;;;5049273;28;20052;-81
2023/07/17 03:32:20;;;;;;;4.50;1.40;;;;;;;;;;5048254;28;20468;-81
2023/07/17 03:34:46;;;;;;;3.72;1.40;;;;;;;;;;5047660;28;20055;-81
2023/07/17 03:37:12;;;;;;;3.55;1.35;;;;;;;;;;5047128;28;20110;-80
2023/07/17 03:39:38;;;;;;;3.50;1.10;;;;;;;;;;5049491;28;20055;-82
2023/07/17 03:42:10;;;;;;;5.43;2.13;;;;;;;;;;5049263;28;20123;-82
2023/07/17 03:44:40;;;;;;;4.45;1.55;;;;;;;;;;5050951;28;20044;-82
2023/07/17 03:47:06;;;;;;;3.05;1.40;;;;;;;;;;5032159;28;20386;-82
2023/07/17 03:49:33;;;;;;;4.50;2.00;;;;;;;;;;5051726;28;20044;-83
2023/07/17 03:51:59;;;;;;;5.38;2.42;;;;;;;;;;5042160;28;20045;-82
2023/07/17 03:54:25;;;;;;;3.35;1.45;;;;;;;;;;5045958;28;20048;-82
2023/07/17 03:56:51;;;;;;;2.15;1.10;;;;;;;;;;5057301;28;20040;-82
2023/07/17 03:59:25;;;;;;;2.83;1.40;;;;;;;;;;5059140;28;20127;-82
2023/07/17 04:01:51;;;;;;;4.43;1.70;;;;;;;;;;5038225;28;20077;-83
2023/07/17 04:04:17;;;;;;;5.28;1.33;;;;;;;;;;5061524;28;20099;-83
2023/07/17 04:06:43;;;;;;;2.55;1.30;;;;;;;;;;5036496;28;20083;-82
2023/07/17 04:09:09;;;;;;;3.25;1.65;;;;;;;;;;5051613;28;20045;-82
2023/07/17 04:11:36;;;;;;;5.32;1.73;;;;;;;;;;5030709;28;20159;-82
2023/07/17 04:14:03;;;;;;;5.68;1.65;;;;;;;;;;5044701;28;20053;-82
2023/07/17 04:16:29;;;;;;;2.38;1.50;;;;;;;;;;5055018;28;20044;-82
2023/07/17 04:18:55;;;;;;;3.90;1.77;;;;;;;;;;5059349;28;20127;-82
2023/07/17 04:21:21;;;;;;;5.43;1.63;;;;;;;;;;5048279;28;20044;-81
2023/07/17 04:23:50;;;;;;;2.78;1.35;;;;;;;;;;5047088;28;20049;-81
2023/07/17 04:26:17;;;;;;;5.68;2.30;;;;;;;;;;5052440;28;20040;-82
2023/07/17 04:28:43;;;;;;;3.78;1.48;;;;;;;;;;5048045;28;20708;-81
2023/07/17 04:31:09;;;;;;;2.90;1.58;;;;;;;;;;5049675;28;20041;-82
2023/07/17 04:33:35;;;;;;;4.15;2.00;;;;;;;;;;5057580;28;20401;-81
2023/07/17 04:36:05;;;;;;;3.65;1.20;;;;;;;;;;5046201;28;20049;-81
2023/07/17 04:38:31;;;;;;;4.47;1.50;;;;;;;;;;5049623;28;20047;-82
2023/07/17 04:40:57;;;;;;;4.97;1.67;;;;;;;;;;5055847;28;20065;-82
2023/07/17 04:43:23;;;;;;;3.80;1.67;;;;;;;;;;5050705;28;20081;-82
2023/07/17 04:45:49;;;;;;;5.32;1.50;;;;;;;;;;5051950;28;20456;-82
2023/07/17 04:48:15;;;;;;;5.18;1.70;;;;;;;;;;5053595;28;20041;-82
2023/07/17 04:50:44;;;;;;;3.40;1.60;;;;;;;;;;5057121;28;20040;-81
2023/07/17 04:53:11;;;;;;;3.70;1.90;;;;;;;;;;5030599;28;20086;-82
2023/07/17 04:55:37;;;;;;;3.90;1.73;;;;;;;;;;5057968;28;20361;-81
2023/07/17 04:58:03;;;;;;;3.90;2.15;;;;;;;;;;5056767;28;20052;-81
2023/07/17 05:00:29;;;;;;;6.20;2.03;;;;;;;;;;5047522;28;20401;-82
2023/07/17 05:02:56;;;;;;;4.53;1.55;;;;;;;;;;5050792;28;20045;-81
2023/07/17 05:05:22;;;;;;;6.70;1.95;;;;;;;;;;5052949;28;20143;-83
2023/07/17 05:07:49;;;;;;;4.30;1.65;;;;;;;;;;5031288;28;20044;-82
2023/07/17 05:10:15;;;;;;;9.10;2.38;;;;;;;;;;5057824;28;20037;-80
2023/07/17 05:12:41;;;;;;;4.55;1.98;;;;;;;;;;5047333;28;20051;-81
2023/07/17 05:15:07;;;;;;;6.80;2.42;;;;;;;;;;5038330;28;20417;-80
2023/07/17 05:17:34;;;;;;;5.30;2.03;;;;;;;;;;5047359;28;20039;-82
2023/07/17 05:20:00;;;;;;;5.55;2.10;;;;;;;;;;5060540;28;20045;-83
2023/07/17 05:22:26;;;;;;;3.50;2.03;;;;;;;;;;5046425;28;20036;-81
2023/07/17 05:24:53;;;;;;;5.95;2.20;;;;;;;;;;5029924;28;20390;-81
2023/07/17 05:27:19;;;;;;;6.53;2.50;;;;;;;;;;5048058;28;20036;-82
2023/07/17 05:29:45;;;;;;;4.82;1.90;;;;;;;;;;5055045;28;20040;-79
2023/07/17 05:32:11;;;;;;;2.78;2.08;;;;;;;;;;5060314;28;20052;-86
2023/07/17 05:34:37;;;;;;;5.05;2.42;;;;;;;;;;5044708;28;20154;-83
2023/07/17 05:37:03;;;;;;;4.07;2.05;;;;;;;;;;5051919;28;20091;-81
2023/07/17 05:39:29;;;;;;;5.13;2.50;;;;;;;;;;5039799;28;20068;-80
2023/07/17 05:41:55;;;;;;;4.95;2.00;;;;;;;;;;5050812;28;20044;-80
2023/07/17 05:44:21;;;;;;;2.20;1.75;;;;;;;;;;5051303;28;20052;-81
2023/07/17 05:46:47;;;;;;;3.75;1.85;;;;;;;;;;5050464;28;20044;-84
2023/07/17 05:49:13;;;;;;;5.30;2.47;;;;;;;;;;5050504;28;20087;-80
2023/07/17 05:51:39;;;;;;;4.88;2.17;;;;;;;;;;5061230;28;20044;-81
2023/07/17 05:54:06;;;;;;;5.57;2.35;;;;;;;;;;5059658;28;20055;-81
2023/07/17 05:56:32;;;;;;;6.78;2.38;;;;;;;;;;5065606;28;20040;-80
2023/07/17 05:58:58;;;;;;;5.80;2.78;;;;;;;;;;5060086;28;20055;-81
2023/07/17 06:01:24;;;;;;;5.32;1.95;;;;;;;;;;5059023;28;20033;-81
2023/07/17 06:03:50;;;;;;;9.05;2.30;;;;;;;;;;5063258;28;20097;-82
2023/07/17 06:06:17;;;;;;;9.02;2.50;;;;;;;;;;5053665;28;20049;-81
2023/07/17 06:08:43;;;;;;;3.33;1.88;;;;;;;;;;5052543;28;20041;-80
2023/07/17 06:11:09;;;;;;;7.82;2.53;;;;;;;;;;5063129;28;20095;-83
2023/07/17 06:13:35;;;;;;;9.90;2.30;;;;;;;;;;5045262;28;20083;-80
2023/07/17 06:16:01;;;;;;;4.55;2.20;;;;;;;;;;5064237;28;20052;-80
2023/07/17 06:18:27;;;;;;;6.40;2.45;;;;;;;;;;5053147;28;20084;-81
2023/07/17 06:20:53;;;;;;;6.10;2.65;;;;;;;;;;5052361;28;20051;-81
2023/07/17 06:23:19;;;;;;;8.73;2.25;;;;;;;;;;5038960;28;20041;-83
2023/07/17 06:25:45;;;;;;;6.70;2.38;;;;;;;;;;5065716;28;20091;-82
2023/07/17 06:28:12;;;;;;;7.03;2.35;;;;;;;;;;5063402;28;20037;-84
2023/07/17 06:30:38;;;;;;;6.93;2.50;;;;;;;;;;5049576;28;20053;-83
2023/07/17 06:33:04;;;;;;;5.50;2.50;;;;;;;;;;5054126;28;20505;-86
2023/07/17 06:35:30;;;;;;;6.95;2.67;;;;;;;;;;5045734;28;20041;-84
2023/07/17 06:37:56;;;;;;;5.53;2.58;;;;;;;;;;5049645;28;20045;-83
2023/07/17 06:40:22;;;;;;;8.55;2.20;;;;;;;;;;5046499;28;20037;-83
2023/07/17 06:42:48;;;;;;;4.03;2.45;;;;;;;;;;5053165;28;20124;-82
2023/07/17 06:45:14;;;;;;;6.30;2.72;;;;;;;;;;5064556;28;20041;-85
2023/07/17 06:47:40;;;;;;;4.95;3.40;;;;;;;;;;5055130;28;20065;-85
2023/07/17 06:50:06;;;;;;;5.70;2.72;;;;;;;;;;5061261;28;20072;-85
2023/07/17 06:52:32;;;;;;;10.18;3.53;;;;;;;;;;5050407;28;20432;-90
2023/07/17 06:54:58;;;;;;;6.93;3.08;;;;;;;;;;5050243;28;20036;-89
2023/07/17 06:57:25;;;;;;;6.35;3.00;;;;;;;;;;5063657;28;20124;-87
2023/07/17 06:59:51;;;;;;;5.00;2.85;;;;;;;;;;5063332;28;20389;-88
2023/07/17 07:02:18;;;;;;;4.93;2.72;;;;;;;;;;5057760;28;20439;-92
2023/07/17 07:04:44;;;;;;;6.78;3.05;;;;;;;;;;5059352;28;20059;-87
2023/07/17 07:07:10;;;;;;;5.85;2.92;;;;;;;;;;5050423;28;20036;-85
2023/07/17 07:09:36;;;;;;;4.90;2.97;;;;;;;;;;5040770;28;20105;-85
2023/07/17 07:12:02;;;;;;;9.07;3.20;;;;;;;;;;5059516;28;20106;-86
2023/07/17 07:14:28;;;;;;;12.00;3.13;;;;;;;;;;5051272;28;20044;-86
2023/07/17 07:16:54;;;;;;;7.70;3.40;;;;;;;;;;5052861;28;20080;-87
2023/07/17 07:19:20;;;;;;;7.28;3.10;;;;;;;;;;5051953;28;20048;-87
2023/07/17 07:21:46;;;;;;;5.70;2.47;;;;;;;;;;5049437;28;20051;-84
2023/07/17 07:24:12;;;;;;;7.60;3.65;;;;;;;;;;5053648;28;20072;-88
2023/07/17 07:26:38;;;;;;;7.72;2.83;;;;;;;;;;5034145;28;20041;-86
2023/07/17 07:29:04;;;;;;;7.43;3.70;;;;;;;;;;5050357;28;20041;-88
2023/07/17 07:31:30;;;;;;;8.65;3.28;;;;;;;;;;5049357;28;20045;-84
2023/07/17 07:33:56;;;;;;;5.45;2.67;;;;;;;;;;5046039;28;20075;-81
2023/07/17 07:36:22;;;;;;;7.43;2.85;;;;;;;;;;5044557;28;20059;-80
2023/07/17 07:38:48;;;;;;;9.13;3.42;;;;;;;;;;5054777;28;20049;-82
2023/07/17 07:41:15;;;;;;;7.18;2.45;;;;;;;;;;5061816;28;20469;-81
2023/07/17 07:43:41;;;;;;;7.57;2.90;;;;;;;;;;5053346;28;20104;-81
2023/07/17 07:46:07;;;;;;;6.28;3.42;;;;;;;;;;5044750;28;20055;-81
2023/07/17 07:48:33;;;;;;;6.50;2.75;;;;;;;;;;5048238;28;20052;-81
2023/07/17 07:50:59;;;;;;;8.27;2.88;;;;;;;;;;5052601;28;20596;-82
2023/07/17 07:53:25;;;;;;;6.03;3.22;;;;;;;;;;5048660;28;20128;-80
2023/07/17 07:55:51;;;;;;;6.90;2.53;;;;;;;;;;5049905;28;20408;-80
2023/07/17 07:58:17;;;;;;;6.82;2.97;;;;;;;;;;5056694;28;20041;-80
2023/07/17 08:00:43;;;;;;;5.07;2.38;;;;;;;;;;5049657;28;20041;-81
2023/07/17 08:03:09;;;;;;;5.70;2.58;;;;;;;;;;5054936;28;20041;-83
2023/07/17 08:05:35;;;;;;;6.63;2.88;;;;;;;;;;5044336;28;20037;-82
2023/07/17 08:08:01;;;;;;;3.35;2.25;;;;;;;;;;5042709;28;20037;-81
2023/07/17 08:10:27;;;;;;;11.77;2.90;;;;;;;;;;5048560;28;20029;-81
2023/07/17 08:12:53;;;;;;;5.15;2.33;;;;;;;;;;5044615;28;20401;-84
2023/07/17 08:15:19;;;;;;;6.20;2.47;;;;;;;;;;5046535;28;20068;-81
2023/07/17 08:17:45;;;;;;;6.55;2.95;;;;;;;;;;5012793;28;20048;-80
2023/07/17 08:20:11;;;;;;;7.28;2.92;;;;;;;;;;5030025;28;20045;-82
2023/07/17 08:22:37;;;;;;;6.38;2.83;;;;;;;;;;5070012;28;20085;-82
2023/07/17 08:25:04;;;;;;;3.92;2.83;;;;;;;;;;5047940;28;20044;-80
2023/07/17 08:27:30;;;;;;;8.02;2.22;;;;;;;;;;5048290;28;20048;-81
2023/07/17 08:29:56;;;;;;;6.93;2.90;;;;;;;;;;5060345;28;20466;-82
2023/07/17 08:32:22;;;;;;;8.50;3.20;;;;;;;;;;5053399;28;20033;-90
2023/07/17 08:34:48;;;;;;;6.68;2.88;;;;;;;;;;5038098;28;20482;-86
2023/07/17 08:37:14;;;;;;;7.07;3.80;;;;;;;;;;5048427;28;20040;-86
2023/07/17 08:39:40;;;;;;;5.97;3.03;;;;;;;;;;5048801;28;20066;-87
2023/07/17 08:42:06;;;;;;;7.50;3.40;;;;;;;;;;5052203;28;20563;-83
2023/07/17 08:44:34;;;;;;;6.90;3.53;;;;;;;;;;5028286;28;20037;-85
2023/07/17 08:47:03;;;;;;;5.10;2.15;;;;;;;;;;5048565;28;20037;-88
2023/07/17 08:49:30;;;;;;;4.35;2.70;;;;;;;;;;5048134;28;20393;-81
2023/07/17 08:51:58;;;;;;;4.80;2.78;;;;;;;;;;5035518;28;20052;-81
2023/07/17 08:54:24;;;;;;;7.82;2.65;;;;;;;;;;5022071;28;20045;-80
2023/07/17 08:56:51;;;;;;;7.18;3.00;;;;;;;;;;5033368;28;20042;-81
2023/07/17 08:59:18;;;;;;;6.30;2.97;;;;;;;;;;5046594;28;20037;-83
2023/07/17 09:01:44;;;;;;;6.35;2.80;;;;;;;;;;5043316;28;20049;-83
2023/07/17 09:04:11;;;;;;;8.45;3.13;;;;;;;;;;5049797;28;20041;-84
2023/07/17 09:06:37;;;;;;;6.25;2.70;;;;;;;;;;5018227;28;20056;-82
2023/07/17 09:09:03;;;;;;;7.93;2.92;;;;;;;;;;5040840;28;20040;-88
2023/07/17 09:11:29;;;;;;;6.55;3.15;;;;;;;;;;5042843;28;20048;-92
2023/07/17 09:13:55;;;;;;;7.43;3.25;;;;;;;;;;5049048;28;20422;-85
2023/07/17 09:16:22;;;;;;;11.18;3.25;;;;;;;;;;5036359;28;20048;-83
2023/07/17 09:18:50;;;;;;;5.72;2.53;;;;;;;;;;5048186;28;20041;-90
2023/07/17 09:21:34;;;;;;;4.57;2.72;;;;;;;;;;5047655;28;20044;-92
2023/07/17 09:24:00;;;;;;;6.30;2.25;;;;;;;;;;5049224;28;20091;-90
2023/07/17 09:26:28;;;;;;;7.18;3.67;;;;;;;;;;5042262;28;20071;-91
2023/07/17 09:28:56;;;;;;;5.95;2.55;;;;;;;;;;5049337;28;20040;-87
2023/07/17 09:31:32;;;;;;;4.47;2.50;;;;;;;;;;5063861;28;20045;-87
2023/07/17 09:33:59;;;;;;;6.35;1.92;;;;;;;;;;5067610;28;20455;-89
2023/07/17 09:36:25;;;;;;;5.82;2.47;;;;;;;;;;5050290;28;20036;-86
2023/07/17 09:38:55;;;;;;;6.32;2.17;;;;;;;;;;5059837;28;20041;-87
2023/07/17 09:41:28;;;;;;;6.53;3.22;;;;;;;;;;5048179;28;20048;-93
2023/07/17 09:44:00;;;;;;;3.13;1.80;;;;;;;;;;5067437;28;20376;-86
2023/07/17 09:46:30;;;;;;;4.28;2.25;;;;;;;;;;5052460;28;20077;-85
2023/07/17 09:48:57;;;;;;;4.80;1.77;;;;;;;;;;5034350;28;20041;-87
2023/07/17 09:51:23;;;;;;;6.40;2.05;;;;;;;;;;5033241;28;20041;-91
2023/07/17 09:53:50;;;;;;;4.38;1.75;;;;;;;;;;5061289;28;20037;-92
2023/07/17 09:56:16;;;;;;;4.80;2.10;;;;;;;;;;5052479;28;20064;-87
2023/07/17 09:58:53;;;;;;;2.70;1.95;;;;;;;;;;5052631;28;20043;-91
2023/07/17 10:01:20;;;;;;;5.20;2.42;;;;;;;;;;5041611;28;20501;-84
2023/07/17 10:03:47;;;;;;;4.47;1.70;;;;;;;;;;5069579;28;20493;-87
2023/07/17 10:06:16;;;;;;;4.32;2.00;;;;;;;;;;5073318;28;20064;-88
2023/07/17 10:08:44;;;;;;;5.78;1.70;;;;;;;;;;5061059;28;20041;-89
2023/07/17 10:11:10;;;;;;;3.60;1.77;;;;;;;;;;5062366;28;20041;-86
2023/07/17 10:13:36;;;;;;;2.83;1.75;;;;;;;;;;5063276;28;20052;-83
2023/07/17 10:16:02;;;;;;;2.45;1.40;;;;;;;;;;5051974;28;20182;-83
2023/07/17 10:18:30;;;;;;;5.97;1.55;;;;;;;;;;5054075;28;20393;-83
2023/07/17 10:20:57;;;;;;;3.45;1.70;;;;;;;;;;5051934;28;20446;-84
2023/07/17 10:23:24;;;;;;;5.82;2.28;;;;;;;;;;5051762;28;20051;-82
2023/07/17 10:25:50;;;;;;;4.88;1.55;;;;;;;;;;5031878;28;20042;-83
2023/07/17 10:28:29;;;;;;;4.03;2.00;;;;;;;;;;5066010;28;20040;-86
2023/07/17 10:30:55;;;;;;;2.15;1.65;;;;;;;;;;5068259;28;20504;-86
2023/07/17 10:33:22;;;;;;;4.00;1.25;;;;;;;;;;5049207;28;20029;-84
2023/07/17 10:35:50;;;;;;;3.20;1.83;;;;;;;;;;5058302;28;20045;-83
2023/07/17 10:38:17;;;;;;;3.03;1.33;;;;;;;;;;5060427;28;20039;-85
2023/07/17 10:40:44;;;;;;;3.47;2.00;;;;;;;;;;5052057;28;20094;-88
2023/07/17 10:43:17;;;;;;;4.93;1.95;;;;;;;;;;5061454;28;20469;-84
2023/07/17 10:45:44;;;;;;;5.35;1.55;;;;;;;;;;5061087;28;20405;-84
2023/07/17 10:48:11;;;;;;;2.42;1.70;;;;;;;;;;5050218;28;20033;-89
2023/07/17 10:50:38;;;;;;;2.85;1.40;;;;;;;;;;5047078;28;20422;-86
2023/07/17 10:53:09;;;;;;;4.90;2.20;;;;;;;;;;5064356;28;20131;-85
2023/07/17 10:55:36;;;;;;;2.90;1.45;;;;;;;;;;5052081;28;20087;-85
2023/07/17 10:58:02;;;;;;;4.70;2.15;;;;;;;;;;5053544;28;20367;-90
2023/07/17 11:00:28;;;;;;;3.38;1.70;;;;;;;;;;5041821;28;20041;-93
2023/07/17 11:02:58;;;;;;;3.97;1.80;;;;;;;;;;5072120;28;20127;-90
2023/07/17 11:05:24;;;;;;;3.53;1.67;;;;;;;;;;5055391;28;20044;-92
2023/07/17 11:07:51;;;;;;;6.72;1.88;;;;;;;;;;5068838;28;20075;-92
2023/07/17 11:10:17;;;;;;;3.60;1.55;;;;;;;;;;5053651;28;20055;-88
2023/07/17 11:12:43;;;;;;;3.20;1.70;;;;;;;;;;5041885;28;20053;-94
2023/07/17 11:15:14;;;;;;;5.20;1.55;;;;;;;;;;5058280;28;20367;-92
2023/07/17 11:17:40;;;;;;;4.32;1.77;;;;;;;;;;5060095;28;20116;-89
2023/07/17 11:20:07;;;;;;;2.55;1.25;;;;;;;;;;5035510;28;20084;-86
2023/07/17 11:22:33;;;;;;;2.22;1.25;;;;;;;;;;5065883;28;20048;-88
2023/07/17 11:24:59;;;;;;;2.83;1.15;;;;;;;;;;5040310;28;20033;-93
2023/07/17 11:27:25;;;;;;;1.92;1.02;;;;;;;;;;5050321;28;20043;-86
2023/07/17 11:29:51;;;;;;;2.58;1.88;;;;;;;;;;5032472;28;20038;-87
2023/07/17 11:32:21;;;;;;;2.60;1.42;;;;;;;;;;5032561;28;20052;-87
2023/07/17 11:34:53;;;;;;;4.32;1.73;;;;;;;;;;5030492;28;20128;-89
2023/07/17 11:37:49;;;;;;;2.08;1.13;;;;;;;;;;5030885;28;20113;-87
2023/07/17 11:40:15;;;;;;;2.72;1.17;;;;;;;;;;5027815;28;20111;-92
2023/07/17 11:42:56;;;;;;;1.90;1.20;;;;;;;;;;5046046;28;20038;-85
2023/07/17 11:45:26;;;;;;;3.65;1.40;;;;;;;;;;5064017;28;20529;-90
2023/07/17 11:47:56;;;;;;;3.45;1.65;;;;;;;;;;5048544;28;20037;-88
2023/07/17 11:50:26;;;;;;;4.47;1.42;;;;;;;;;;5052191;28;20036;-90
2023/07/17 11:53:04;;;;;;;4.93;1.58;;;;;;;;;;5050929;28;20044;-89
2023/07/17 11:55:37;;;;;;;4.40;1.55;;;;;;;;;;5044341;28;20389;-90
2023/07/17 11:58:15;;;;;;;3.47;1.15;;;;;;;;;;5049108;28;20048;-92
2023/07/17 12:00:42;;;;;;;2.92;1.10;;;;;;;;;;5050003;28;20044;-93
2023/07/17 12:03:08;;;;;;;2.83;1.20;;;;;;;;;;5050880;28;20041;-87
2023/07/17 12:05:36;;;;;;;1.80;0.90;;;;;;;;;;5048375;28;20041;-85
2023/07/17 12:08:02;;;;;;;2.92;0.82;;;;;;;;;;5048288;28;20052;-87
2023/07/17 12:10:28;;;;;;;3.42;1.20;;;;;;;;;;5031429;28;20402;-87
2023/07/17 12:12:54;;;;;;;2.75;1.10;;;;;;;;;;5031018;28;20068;-90
2023/07/17 12:15:22;;;;;;;4.70;1.63;;;;;;;;;;5046571;28;20131;-87
2023/07/17 12:17:48;;;;;;;2.75;1.30;;;;;;;;;;5062468;28;20138;-87
2023/07/17 12:20:20;;;;;;;1.67;1.10;;;;;;;;;;5032949;28;20049;-90
2023/07/17 12:22:49;;;;;;;2.33;1.05;;;;;;;;;;5069338;28;20050;-87
2023/07/17 12:25:15;;;;;;;3.42;0.90;;;;;;;;;;5067570;28;20080;-90
2023/07/17 12:27:44;;;;;;;2.65;1.10;;;;;;;;;;5036353;28;20105;-87
2023/07/17 12:30:11;;;;;;;2.72;1.10;;;;;;;;;;5036402;28;20053;-89
2023/07/17 12:32:40;;;;;;;2.85;1.17;;;;;;;;;;5033913;28;20045;-88
2023/07/17 12:35:07;;;;;;;3.88;1.50;;;;;;;;;;5035962;28;20045;-86
2023/07/17 12:37:33;;;;;;;5.13;1.30;;;;;;;;;;5050425;28;20040;-86
2023/07/17 12:40:00;;;;;;;3.10;0.90;;;;;;;;;;5069494;28;20056;-87
2023/07/17 12:42:26;;;;;;;2.47;0.90;;;;;;;;;;5048528;28;20056;-89
2023/07/17 12:44:53;;;;;;;2.33;0.82;;;;;;;;;;5050171;28;20405;-87
2023/07/17 12:47:19;;;;;;;3.35;1.50;;;;;;;;;;5047196;28;20087;-84
2023/07/17 12:49:45;;;;;;;1.80;0.90;;;;;;;;;;5048933;28;20048;-90
2023/07/17 12:52:11;;;;;;;1.63;1.17;;;;;;;;;;5049144;28;20397;-88
2023/07/17 12:54:37;;;;;;;3.22;1.45;;;;;;;;;;5047651;28;20498;-85
2023/07/17 12:57:03;;;;;;;3.22;1.23;;;;;;;;;;5049257;28;20049;-86
2023/07/17 12:59:29;;;;;;;3.78;1.20;;;;;;;;;;5048526;28;20040;-87
2023/07/17 13:01:56;;;;;;;2.67;1.00;;;;;;;;;;5040710;28;20053;-88
2023/07/17 13:04:22;;;;;;;2.95;1.23;;;;;;;;;;5028450;28;20053;-88
2023/07/17 13:06:49;;;;;;;2.00;1.00;;;;;;;;;;5029132;28;20080;-88
2023/07/17 13:09:15;;;;;;;2.85;1.52;;;;;;;;;;5032428;28;20045;-89
2023/07/17 13:11:41;;;;;;;4.00;1.30;;;;;;;;;;5033174;28;20034;-87
2023/07/17 13:14:08;;;;;;;3.50;1.42;;;;;;;;;;5049318;28;20080;-89
2023/07/17 13:16:34;;;;;;;2.83;1.27;;;;;;;;;;5033914;28;20041;-87
2023/07/17 13:19:01;;;;;;;2.05;1.20;;;;;;;;;;5050004;28;20079;-87
2023/07/17 13:21:27;;;;;;;2.60;1.17;;;;;;;;;;5052627;28;20051;-89
2023/07/17 13:23:54;;;;;;;5.20;1.50;;;;;;;;;;5053367;28;20105;-90
2023/07/17 13:26:32;;;;;;;1.13;0.73;;;;;;;;;;5036010;28;20041;-89
2023/07/17 13:28:58;;;;;;;2.75;1.13;;;;;;;;;;5068983;28;20041;-87
2023/07/17 13:31:24;;;;;;;1.63;0.93;;;;;;;;;;5054853;28;20041;-92
2023/07/17 13:33:50;;;;;;;2.80;1.02;;;;;;;;;;5054502;28;20103;-92
2023/07/17 13:36:16;;;;;;;2.75;1.27;;;;;;;;;;5055826;28;20079;-88
2023/07/17 13:38:43;;;;;;;2.70;1.25;;;;;;;;;;5052704;28;20037;-89
2023/07/17 13:41:13;;;;;;;1.70;1.10;;;;;;;;;;5054152;28;20485;-92
2023/07/17 13:43:40;;;;;;;2.30;1.50;;;;;;;;;;5035995;28;20056;-89
2023/07/17 13:46:06;;;;;;;1.95;0.98;;;;;;;;;;5055156;28;20033;-90
2023/07/17 13:48:32;;;;;;;2.10;0.85;;;;;;;;;;5052062;28;20113;-87
2023/07/17 13:50:58;;;;;;;3.03;1.10;;;;;;;;;;5035654;28;20073;-86
2023/07/17 13:53:24;;;;;;;2.22;1.08;;;;;;;;;;5041756;28;20103;-86
2023/07/17 13:55:50;;;;;;;2.33;1.30;;;;;;;;;;5048112;28;20417;-85
2023/07/17 13:58:16;;;;;;;2.13;1.13;;;;;;;;;;5064786;28;20037;-85
2023/07/17 14:00:42;;;;;;;1.42;0.82;;;;;;;;;;5033678;28;20046;-84
2023/07/17 14:03:08;;;;;;;2.20;1.55;;;;;;;;;;5064804;28;20081;-85
2023/07/17 14:05:34;;;;;;;4.20;1.45;;;;;;;;;;5064447;28;20041;-84
2023/07/17 14:08:00;;;;;;;2.60;1.73;;;;;;;;;;5032563;28;20056;-85
2023/07/17 14:10:27;;;;;;;4.70;1.77;;;;;;;;;;5047514;28;20045;-85
2023/07/17 14:12:53;;;;;;;4.03;1.73;;;;;;;;;;5034956;28;20056;-84
2023/07/17 14:15:19;;;;;;;4.68;1.67;;;;;;;;;;5052414;28;20049;-84
2023/07/17 14:17:45;;;;;;;3.42;1.73;;;;;;;;;;5050993;28;20044;-84
2023/07/17 14:20:11;;;;;;;4.28;1.85;;;;;;;;;;5036282;28;20045;-84
2023/07/17 14:22:37;;;;;;;4.15;1.60;;;;;;;;;;5079058;28;20445;-84
2023/07/17 14:25:04;;;;;;;2.88;1.73;;;;;;;;;;5051056;28;20044;-84
2023/07/17 14:27:30;;;;;;;2.63;1.77;;;;;;;;;;5050300;28;20083;-84
2023/07/17 14:29:56;;;;;;;3.97;1.80;;;;;;;;;;5052149;28;20045;-85
2023/07/17 14:32:22;;;;;;;2.20;1.42;;;;;;;;;;5042865;28;20041;-85
2023/07/17 14:34:48;;;;;;;2.47;1.60;;;;;;;;;;5030429;28;20048;-85
2023/07/17 14:37:14;;;;;;;7.30;2.00;;;;;;;;;;5030942;28;20037;-85
2023/07/17 14:39:40;;;;;;;6.50;2.15;;;;;;;;;;5032187;28;20044;-84
2023/07/17 14:42:06;;;;;;;3.83;1.75;;;;;;;;;;5032915;28;20371;-85